createdAt,value
2023-09-28T00:00:44.266Z,11.97
2023-09-28T00:03:12.199Z,12.63
2023-09-28T00:05:38.758Z,12.55
2023-09-28T00:08:05.479Z,12.65
2023-09-28T00:10:31.947Z,12.57
2023-09-28T00:12:58.396Z,12.23
2023-09-28T00:15:25.980Z,13.10
2023-09-28T00:17:52.807Z,14.60
2023-09-28T00:20:21.018Z,12.48
2023-09-28T00:22:48.559Z,12.35
2023-09-28T00:25:15.316Z,13.77
2023-09-28T00:27:43.781Z,11.70
2023-09-28T00:30:11.393Z,15.18
2023-09-28T00:32:38.015Z,12.90
2023-09-28T00:35:05.616Z,11.70
2023-09-28T00:37:33.620Z,11.43
2023-09-28T00:40:00.330Z,12.25
2023-09-28T00:42:28.233Z,11.93
2023-09-28T00:44:54.957Z,12.88
2023-09-28T00:47:21.748Z,13.63
2023-09-28T00:49:48.646Z,13.20
2023-09-28T00:52:15.386Z,11.90
2023-09-28T00:54:44.064Z,13.52
2023-09-28T00:57:10.747Z,12.40
2023-09-28T00:59:37.187Z,13.23
2023-09-28T01:02:03.665Z,11.97
2023-09-28T01:04:30.152Z,13.80
2023-09-28T01:06:56.583Z,12.80
2023-09-28T01:09:23.028Z,12.45
2023-09-28T01:11:50.830Z,12.23
2023-09-28T01:14:17.294Z,12.03
2023-09-28T01:16:43.861Z,13.10
2023-09-28T01:19:10.334Z,13.18
2023-09-28T01:21:36.779Z,13.85
2023-09-28T01:24:04.847Z,13.65
2023-09-28T01:26:31.292Z,13.27
2023-09-28T01:28:57.858Z,11.90
2023-09-28T01:31:24.430Z,13.57
2023-09-28T01:33:50.953Z,12.02
2023-09-28T01:36:17.398Z,11.50
2023-09-28T01:38:49.312Z,14.17
2023-09-28T01:41:17.113Z,13.40
2023-09-28T01:43:43.637Z,14.68
2023-09-28T01:46:10.112Z,14.43
2023-09-28T01:48:36.569Z,14.95
2023-09-28T01:51:03.338Z,13.13
2023-09-28T01:53:29.933Z,13.15
2023-09-28T01:55:58.408Z,13.90
2023-09-28T01:58:26.494Z,15.07
2023-09-28T02:00:53.055Z,17.90
2023-09-28T02:03:19.522Z,14.17
2023-09-28T02:05:46.027Z,14.90
2023-09-28T02:08:12.504Z,15.05
2023-09-28T02:10:39.078Z,12.68
2023-09-28T02:13:05.587Z,13.48
2023-09-28T02:15:33.399Z,12.70
2023-09-28T02:17:59.874Z,14.73
2023-09-28T02:20:26.358Z,13.05
2023-09-28T02:22:52.894Z,12.90
2023-09-28T02:25:21.338Z,12.43
2023-09-28T02:27:49.132Z,12.17
2023-09-28T02:30:18.015Z,14.10
2023-09-28T02:32:46.178Z,12.00
2023-09-28T02:35:13.975Z,14.07
2023-09-28T02:37:40.801Z,15.30
2023-09-28T02:40:08.362Z,11.83
2023-09-28T02:42:35.041Z,13.20
2023-09-28T02:45:01.621Z,11.65
2023-09-28T02:47:28.375Z,14.45
2023-09-28T02:49:56.217Z,12.43
2023-09-28T02:52:22.707Z,14.60
2023-09-28T02:54:49.124Z,12.43
2023-09-28T02:57:15.585Z,12.57
2023-09-28T02:59:42.036Z,13.57
2023-09-28T03:02:08.538Z,14.50
2023-09-28T03:04:35.154Z,13.57
2023-09-28T03:07:02.991Z,14.32
2023-09-28T03:09:30.617Z,12.88
2023-09-28T03:11:57.066Z,12.32
2023-09-28T03:14:23.577Z,12.57
2023-09-28T03:16:50.067Z,12.77
2023-09-28T03:19:16.638Z,14.55
2023-09-28T03:21:43.141Z,15.27
2023-09-28T03:24:11.026Z,13.35
2023-09-28T03:26:37.455Z,11.70
2023-09-28T03:29:04.079Z,14.03
2023-09-28T03:31:32.202Z,13.10
2023-09-28T03:33:59.904Z,15.35
2023-09-28T03:36:26.641Z,14.40
2023-09-28T03:38:53.099Z,15.88
2023-09-28T03:41:20.860Z,15.17
2023-09-28T03:43:47.378Z,16.35
2023-09-28T03:46:13.894Z,16.88
2023-09-28T03:48:40.345Z,15.13
2023-09-28T03:51:06.804Z,15.75
2023-09-28T03:53:39.449Z,16.57
2023-09-28T03:56:05.944Z,14.65
2023-09-28T03:58:34.076Z,15.38
2023-09-28T04:01:00.739Z,15.85
2023-09-28T04:03:27.177Z,16.02
2023-09-28T04:05:53.787Z,15.37
2023-09-28T04:08:20.210Z,15.40
2023-09-28T04:10:46.735Z,14.45
2023-09-28T04:13:13.209Z,14.77
2023-09-28T04:15:41.038Z,17.13
2023-09-28T04:18:07.569Z,16.07
2023-09-28T04:20:34.070Z,18.25
2023-09-28T04:23:00.544Z,15.60
2023-09-28T04:25:27.071Z,14.35
2023-09-28T04:27:53.637Z,14.98
2023-09-28T04:30:23.124Z,16.47
2023-09-28T04:32:51.436Z,20.88
2023-09-28T04:35:17.972Z,18.20
2023-09-28T04:37:44.467Z,15.50
2023-09-28T04:40:11.643Z,16.35
2023-09-28T04:42:38.083Z,15.10
2023-09-28T04:45:05.364Z,16.77
2023-09-28T04:47:32.159Z,15.18
2023-09-28T04:50:00.077Z,14.68
2023-09-28T04:52:26.556Z,15.15
2023-09-28T04:54:53.024Z,16.07
2023-09-28T04:57:19.475Z,15.70
2023-09-28T04:59:45.954Z,16.00
2023-09-28T05:02:12.514Z,15.77
2023-09-28T05:04:38.976Z,16.33
2023-09-28T05:07:06.790Z,15.13
2023-09-28T05:09:33.439Z,16.17
2023-09-28T05:11:59.993Z,16.35
2023-09-28T05:14:26.775Z,15.52
2023-09-28T05:16:53.607Z,16.08
2023-09-28T05:19:20.181Z,16.87
2023-09-28T05:21:46.795Z,15.02
2023-09-28T05:24:14.565Z,15.60
2023-09-28T05:26:41.141Z,17.05
2023-09-28T05:29:07.626Z,15.93
2023-09-28T05:31:34.161Z,19.30
2023-09-28T05:34:01.257Z,15.07
2023-09-28T05:36:27.702Z,17.65
2023-09-28T05:38:54.161Z,16.70
2023-09-28T05:41:22.010Z,18.05
2023-09-28T05:43:48.520Z,14.90
2023-09-28T05:46:15.041Z,15.45
2023-09-28T05:48:41.491Z,17.75
2023-09-28T05:51:08.006Z,14.00
2023-09-28T05:53:34.497Z,15.50
2023-09-28T05:56:01.045Z,15.33
2023-09-28T05:58:28.845Z,13.63
2023-09-28T06:00:55.295Z,17.67
2023-09-28T06:03:21.871Z,16.98
2023-09-28T06:05:48.385Z,14.75
2023-09-28T06:08:15.012Z,16.57
2023-09-28T06:10:41.716Z,15.65
2023-09-28T06:13:08.180Z,21.73
2023-09-28T06:15:36.097Z,16.88
2023-09-28T06:18:02.621Z,16.90
2023-09-28T06:20:29.135Z,14.43
2023-09-28T06:22:55.818Z,15.27
2023-09-28T06:25:22.340Z,15.60
2023-09-28T06:27:48.832Z,15.85
2023-09-28T06:30:15.627Z,15.85
2023-09-28T06:32:43.590Z,15.10
2023-09-28T06:35:10.517Z,14.15
2023-09-28T06:37:37.139Z,16.52
2023-09-28T06:40:04.195Z,17.63
2023-09-28T06:42:37.166Z,16.75
2023-09-28T06:45:05.715Z,19.40
2023-09-28T06:47:46.474Z,19.48
2023-09-28T06:50:20.097Z,15.93
2023-09-28T06:52:46.584Z,15.32
2023-09-28T06:55:13.273Z,17.17
2023-09-28T06:57:39.912Z,16.50
2023-09-28T07:00:07.436Z,17.85
2023-09-28T07:02:33.995Z,17.27
2023-09-28T07:05:00.591Z,18.20
2023-09-28T07:07:28.392Z,17.13
2023-09-28T07:09:57.346Z,15.60
2023-09-28T07:12:24.367Z,16.67
2023-09-28T07:14:50.867Z,15.90
2023-09-28T07:17:17.412Z,18.85
2023-09-28T07:19:43.882Z,14.68
2023-09-28T07:22:10.400Z,15.73
2023-09-28T07:24:38.294Z,16.25
2023-09-28T07:27:04.922Z,14.07
2023-09-28T07:29:31.446Z,13.68
2023-09-28T07:31:58.237Z,14.80
2023-09-28T07:34:24.730Z,14.33
2023-09-28T07:36:51.193Z,13.68
2023-09-28T07:39:17.617Z,13.45
2023-09-28T07:41:45.390Z,13.68
2023-09-28T07:44:11.816Z,12.63
2023-09-28T07:46:38.264Z,12.70
2023-09-28T07:49:04.771Z,13.60
2023-09-28T07:51:31.223Z,13.23
2023-09-28T07:53:57.634Z,14.70
2023-09-28T07:56:24.154Z,15.93
2023-09-28T07:58:51.941Z,14.30
2023-09-28T08:01:18.609Z,13.93
2023-09-28T08:03:47.109Z,13.68
2023-09-28T08:06:28.944Z,16.52
2023-09-28T08:08:57.082Z,16.88
2023-09-28T08:11:23.641Z,17.90
2023-09-28T08:13:50.145Z,19.02
2023-09-28T08:16:20.728Z,20.83
2023-09-28T08:18:47.496Z,19.95
2023-09-28T08:21:13.932Z,18.83
2023-09-28T08:23:53.816Z,20.90
2023-09-28T08:26:20.546Z,18.08
2023-09-28T08:28:47.000Z,18.85
2023-09-28T08:31:13.606Z,17.48
2023-09-28T08:33:41.451Z,17.40
2023-09-28T08:38:37.114Z,15.70
2023-09-28T08:41:07.216Z,17.70
2023-09-28T08:43:40.618Z,15.77
2023-09-28T08:46:11.865Z,16.13
2023-09-28T08:48:44.412Z,18.93
2023-09-28T08:51:11.941Z,17.73
2023-09-28T08:53:39.348Z,17.98
2023-09-28T08:56:06.365Z,15.40
2023-09-28T08:58:34.345Z,14.68
2023-09-28T09:01:01.474Z,17.13
2023-09-28T09:03:28.632Z,15.45
2023-09-28T09:05:57.466Z,15.07
2023-09-28T09:08:25.830Z,14.05
2023-09-28T09:10:53.138Z,14.70
2023-09-28T09:13:20.055Z,14.53
2023-09-28T09:15:46.793Z,14.48
2023-09-28T09:18:17.778Z,14.45
2023-09-28T09:20:44.315Z,15.25
2023-09-28T09:23:15.954Z,14.98
2023-09-28T09:25:43.745Z,13.23
2023-09-28T09:28:10.840Z,15.95
2023-09-28T09:30:37.748Z,13.40
2023-09-28T09:33:06.680Z,11.52
2023-09-28T09:35:33.220Z,12.30
2023-09-28T09:38:00.102Z,11.80
2023-09-28T09:40:27.987Z,12.60
2023-09-28T09:42:54.490Z,11.30
2023-09-28T09:45:20.942Z,11.75
2023-09-28T09:47:48.800Z,11.85
2023-09-28T09:50:15.879Z,9.87
2023-09-28T09:52:43.498Z,13.10
2023-09-28T09:55:10.091Z,10.95
2023-09-28T09:57:39.150Z,9.13
2023-09-28T10:00:09.842Z,9.30
2023-09-28T10:02:38.373Z,9.93
2023-09-28T10:05:07.916Z,9.65
2023-09-28T10:07:47.395Z,8.57
2023-09-28T10:10:15.388Z,8.50
2023-09-28T10:12:43.510Z,10.50
2023-09-28T10:15:11.463Z,8.20
2023-09-28T10:17:38.845Z,8.63
2023-09-28T10:20:07.361Z,8.55
2023-09-28T10:22:33.881Z,9.10
2023-09-28T10:25:00.361Z,7.45
2023-09-28T10:27:27.110Z,7.17
2023-09-28T10:30:15.992Z,8.15
2023-09-28T10:32:42.655Z,10.57
2023-09-28T10:35:13.334Z,8.27
2023-09-28T10:37:40.228Z,9.18
2023-09-28T10:40:07.753Z,8.63
2023-09-28T10:42:34.266Z,8.32
2023-09-28T10:45:00.693Z,6.82
2023-09-28T10:47:28.568Z,8.82
2023-09-28T10:50:03.598Z,8.25
2023-09-28T10:52:30.150Z,9.33
2023-09-28T10:54:57.211Z,8.18
2023-09-28T10:57:29.328Z,9.60
2023-09-28T10:59:59.444Z,8.75
2023-09-28T11:02:25.911Z,12.65
2023-09-28T11:04:54.029Z,8.13
2023-09-28T11:07:20.623Z,9.98
2023-09-28T11:09:47.158Z,8.05
2023-09-28T11:12:14.992Z,7.57
2023-09-28T11:14:42.270Z,7.72
2023-09-28T11:17:09.077Z,8.90
2023-09-28T11:19:36.103Z,8.60
2023-09-28T11:22:03.982Z,7.50
2023-09-28T11:24:30.418Z,7.97
2023-09-28T11:26:57.444Z,7.88
2023-09-28T11:29:25.735Z,7.80
2023-09-28T11:31:52.440Z,8.32
2023-09-28T11:34:28.107Z,7.72
2023-09-28T11:36:56.226Z,8.57
2023-09-28T11:39:25.907Z,8.90
2023-09-28T11:41:56.387Z,8.67
2023-09-28T11:44:25.412Z,8.13
2023-09-28T11:46:51.944Z,8.98
2023-09-28T11:49:19.597Z,7.18
2023-09-28T11:51:46.170Z,7.32
2023-09-28T11:54:14.300Z,8.93
2023-09-28T11:56:42.698Z,8.90
2023-09-28T11:59:09.283Z,8.40
2023-09-28T12:01:36.153Z,7.95
2023-09-28T12:04:02.922Z,7.20
2023-09-28T12:06:29.417Z,6.83
2023-09-28T12:08:55.864Z,7.68
2023-09-28T12:11:22.316Z,7.47
2023-09-28T12:13:50.140Z,6.60
2023-09-28T12:16:16.818Z,8.32
2023-09-28T12:18:43.348Z,7.80
2023-09-28T12:21:09.884Z,7.75
2023-09-28T12:23:36.380Z,8.07
2023-09-28T12:26:03.007Z,8.70
2023-09-28T12:28:29.707Z,8.45
2023-09-28T12:30:57.644Z,7.80
2023-09-28T12:33:24.383Z,7.70
2023-09-28T12:35:50.825Z,7.70
2023-09-28T12:38:17.464Z,7.43
2023-09-28T12:40:43.964Z,7.75
2023-09-28T12:43:11.239Z,8.57
2023-09-28T12:45:37.969Z,7.20
2023-09-28T12:48:06.781Z,6.47
2023-09-28T12:50:34.030Z,6.50
2023-09-28T12:53:00.936Z,6.70
2023-09-28T12:55:28.522Z,6.70
2023-09-28T12:57:55.944Z,7.72
2023-09-28T13:00:22.502Z,5.72
2023-09-28T13:02:49.394Z,6.78
2023-09-28T13:05:17.732Z,6.72
2023-09-28T13:07:44.708Z,6.90
2023-09-28T13:10:11.185Z,7.55
2023-09-28T13:12:37.601Z,9.75
2023-09-28T13:15:07.442Z,7.18
2023-09-28T13:17:34.048Z,6.97
2023-09-28T13:20:00.599Z,7.73
2023-09-28T13:22:28.400Z,7.50
2023-09-28T13:24:54.925Z,6.70
2023-09-28T13:27:21.345Z,7.38
2023-09-28T13:29:47.874Z,7.15
2023-09-28T13:32:14.368Z,7.00
2023-09-28T13:34:41.043Z,6.93
2023-09-28T13:37:07.549Z,6.95
2023-09-28T13:39:35.289Z,6.63
2023-09-28T13:42:03.353Z,6.80
2023-09-28T13:44:30.184Z,9.13
2023-09-28T13:46:57.578Z,7.10
2023-09-28T13:49:24.604Z,7.22
2023-09-28T13:51:51.256Z,7.85
2023-09-28T13:54:17.666Z,8.55
2023-09-28T13:56:45.534Z,9.27
2023-09-28T13:59:12.031Z,8.38
2023-09-28T14:01:38.677Z,6.50
2023-09-28T14:04:05.651Z,8.30
2023-09-28T14:06:32.311Z,7.32
2023-09-28T14:08:58.823Z,8.33
2023-09-28T14:11:25.667Z,7.55
2023-09-28T14:13:53.700Z,7.97
2023-09-28T14:16:20.348Z,7.15
2023-09-28T14:18:46.887Z,7.13
2023-09-28T14:21:13.372Z,8.97
2023-09-28T14:23:39.848Z,7.43
2023-09-28T14:26:06.305Z,6.70
2023-09-28T14:28:33.109Z,6.80
2023-09-28T14:31:01.485Z,8.65
2023-09-28T14:33:28.027Z,6.80
2023-09-28T14:35:54.522Z,6.80
2023-09-28T14:38:21.089Z,8.63
2023-09-28T14:40:47.673Z,6.75
2023-09-28T14:43:14.096Z,7.07
2023-09-28T14:45:40.517Z,7.40
2023-09-28T14:48:08.400Z,10.45
2023-09-28T14:50:35.150Z,6.60
2023-09-28T14:53:01.645Z,6.75
2023-09-28T14:55:28.081Z,6.45
2023-09-28T14:57:54.516Z,7.37
2023-09-28T15:00:20.973Z,7.25
2023-09-28T15:02:47.645Z,7.70
2023-09-28T15:05:15.571Z,7.03
2023-09-28T15:07:42.114Z,8.23
2023-09-28T15:10:09.681Z,6.17
2023-09-28T15:12:36.105Z,6.60
2023-09-28T15:15:02.706Z,8.30
2023-09-28T15:17:29.307Z,8.98
2023-09-28T15:19:55.840Z,8.88
2023-09-28T15:22:23.574Z,6.60
2023-09-28T15:24:50.031Z,6.82
2023-09-28T15:27:16.456Z,6.70
2023-09-28T15:29:43.027Z,7.82
2023-09-28T15:32:09.600Z,6.22
2023-09-28T15:34:36.232Z,6.00
2023-09-28T15:37:02.671Z,6.25
2023-09-28T15:39:30.434Z,8.63
2023-09-28T15:41:56.847Z,6.68
2023-09-28T15:44:23.323Z,7.60
2023-09-28T15:46:49.784Z,5.63
2023-09-28T15:49:16.383Z,6.13
2023-09-28T15:51:42.813Z,7.30
2023-09-28T15:54:09.259Z,7.05
2023-09-28T15:56:37.098Z,7.60
2023-09-28T15:59:03.759Z,5.83
2023-09-28T16:01:30.262Z,7.60
2023-09-28T16:03:57.076Z,7.57
2023-09-28T16:06:24.579Z,8.07
2023-09-28T16:08:51.113Z,7.45
2023-09-28T16:11:18.066Z,7.33
2023-09-28T16:13:45.888Z,9.10
2023-09-28T16:16:12.342Z,6.45
2023-09-28T16:18:38.796Z,7.10
2023-09-28T16:21:05.237Z,8.35
2023-09-28T16:23:31.721Z,6.30
2023-09-28T16:25:58.340Z,7.80
2023-09-28T16:28:24.770Z,8.02
2023-09-28T16:30:52.595Z,7.85
2023-09-28T16:33:19.211Z,8.65
2023-09-28T16:35:45.831Z,6.63
2023-09-28T16:38:13.177Z,5.93
2023-09-28T16:40:39.953Z,7.90
2023-09-28T16:43:06.396Z,6.47
2023-09-28T16:45:33.145Z,9.45
2023-09-28T16:48:01.473Z,6.20
2023-09-28T16:50:28.284Z,6.45
2023-09-28T16:52:54.966Z,6.95
2023-09-28T16:55:21.507Z,7.72
2023-09-28T16:57:47.980Z,10.02
2023-09-28T17:00:14.740Z,8.57
2023-09-28T17:02:41.324Z,10.10
2023-09-28T17:05:09.803Z,7.18
2023-09-28T17:07:36.306Z,9.73
2023-09-28T17:10:02.871Z,9.00
2023-09-28T17:12:42.806Z,8.97
2023-09-28T17:15:11.052Z,8.82
2023-09-28T17:17:37.571Z,7.97
2023-09-28T17:20:05.011Z,8.25
2023-09-28T17:22:32.968Z,7.47
2023-09-28T17:24:59.495Z,7.97
2023-09-28T17:27:26.040Z,8.25
2023-09-28T17:29:52.543Z,8.57
2023-09-28T17:32:19.057Z,9.50
2023-09-28T17:34:45.539Z,7.70
2023-09-28T17:37:11.980Z,9.93
2023-09-28T17:39:39.919Z,7.30
2023-09-28T17:42:06.365Z,7.97
2023-09-28T17:44:32.903Z,8.73
2023-09-28T17:46:59.401Z,8.52
2023-09-28T17:49:25.872Z,7.90
2023-09-28T17:51:52.326Z,11.02
2023-09-28T17:54:18.950Z,8.70
2023-09-28T17:56:46.945Z,10.45
2023-09-28T17:59:13.395Z,8.48
2023-09-28T18:01:39.888Z,8.57
2023-09-28T18:04:06.483Z,11.52
2023-09-28T18:06:32.964Z,9.05
2023-09-28T18:08:59.465Z,8.07
2023-09-28T18:11:26.025Z,9.25
2023-09-28T18:13:53.812Z,9.10
2023-09-28T18:16:20.338Z,7.78
2023-09-28T18:18:46.808Z,7.85
2023-09-28T18:21:13.291Z,8.95
2023-09-28T18:23:39.756Z,9.40
2023-09-28T18:26:06.226Z,8.07
2023-09-28T18:28:32.676Z,9.70
2023-09-28T18:31:00.702Z,9.15
2023-09-28T18:33:27.231Z,12.15
2023-09-28T18:35:53.704Z,8.63
2023-09-28T18:38:20.230Z,9.00
2023-09-28T18:40:46.712Z,8.65
2023-09-28T18:43:13.220Z,7.25
2023-09-28T18:45:39.653Z,7.45
2023-09-28T18:48:08.573Z,8.95
2023-09-28T18:50:40.462Z,8.60
2023-09-28T18:53:06.923Z,11.43
2023-09-28T18:55:33.380Z,11.18
2023-09-28T18:57:59.859Z,9.27
2023-09-28T19:00:26.374Z,9.45
2023-09-28T19:02:52.969Z,8.03
2023-09-28T19:05:20.822Z,8.27
2023-09-28T19:07:47.318Z,8.45
2023-09-28T19:10:13.741Z,8.85
2023-09-28T19:12:40.187Z,7.78
2023-09-28T19:15:07.876Z,8.60
2023-09-28T19:17:34.418Z,9.88
2023-09-28T19:20:00.902Z,7.22
2023-09-28T19:22:28.740Z,7.38
2023-09-28T19:24:55.333Z,7.63
2023-09-28T19:27:37.380Z,8.27
2023-09-28T19:30:06.379Z,9.50
2023-09-28T19:32:32.893Z,10.90
2023-09-28T19:34:59.509Z,9.65
2023-09-28T19:37:25.960Z,9.60
2023-09-28T19:39:53.965Z,8.97
2023-09-28T19:42:20.424Z,8.00
2023-09-28T19:44:46.895Z,10.27
2023-09-28T19:47:13.597Z,8.55
2023-09-28T19:49:40.184Z,8.68
2023-09-28T19:52:06.698Z,8.80
2023-09-28T19:54:33.144Z,10.70
2023-09-28T19:57:00.914Z,9.77
2023-09-28T19:59:27.444Z,10.75
2023-09-28T20:01:53.909Z,11.00
2023-09-28T20:04:20.395Z,9.97
2023-09-28T20:06:46.877Z,10.73
2023-09-28T20:09:13.322Z,10.60
2023-09-28T20:11:39.846Z,9.63
2023-09-28T20:14:07.681Z,9.73
2023-09-28T20:16:34.164Z,9.93
2023-09-28T20:19:00.665Z,10.25
2023-09-28T20:21:27.105Z,9.55
2023-09-28T20:23:53.642Z,8.50
2023-09-28T20:26:20.225Z,10.13
2023-09-28T20:28:46.713Z,10.13
2023-09-28T20:31:14.503Z,10.50
2023-09-28T20:33:42.314Z,10.25
2023-09-28T20:36:08.934Z,9.20
2023-09-28T20:38:35.419Z,11.10
2023-09-28T20:41:01.910Z,8.30
2023-09-28T20:43:28.367Z,11.88
2023-09-28T20:45:54.807Z,8.75
2023-09-28T20:48:22.734Z,9.57
2023-09-28T20:50:49.287Z,8.60
2023-09-28T20:53:15.880Z,7.33
2023-09-28T20:55:42.353Z,8.02
2023-09-28T20:58:08.818Z,8.35
2023-09-28T21:00:35.244Z,10.48
2023-09-28T21:03:02.090Z,8.45
2023-09-28T21:05:29.959Z,7.60
2023-09-28T21:07:56.410Z,10.68
2023-09-28T21:10:22.851Z,7.95
2023-09-28T21:12:49.348Z,8.63
2023-09-28T21:15:15.850Z,10.70
2023-09-28T21:17:42.501Z,7.50
2023-09-28T21:20:09.621Z,8.20
2023-09-28T21:22:37.698Z,8.32
2023-09-28T21:25:05.032Z,8.20
2023-09-28T21:27:31.452Z,9.38
2023-09-28T21:29:58.162Z,8.33
2023-09-28T21:32:24.938Z,9.50
2023-09-28T21:34:51.736Z,7.85
2023-09-28T21:37:18.217Z,8.20
2023-09-28T21:39:46.003Z,8.80
2023-09-28T21:42:12.480Z,8.90
2023-09-28T21:44:39.075Z,8.30
2023-09-28T21:47:05.569Z,7.25
2023-09-28T21:49:32.038Z,11.40
2023-09-28T21:51:58.487Z,8.10
2023-09-28T21:54:25.004Z,7.20
2023-09-28T21:56:52.851Z,8.13
2023-09-28T21:59:19.372Z,7.90
2023-09-28T22:01:45.867Z,7.90
2023-09-28T22:04:12.369Z,7.53
2023-09-28T22:06:38.885Z,7.43
2023-09-28T22:09:05.373Z,9.38
2023-09-28T22:11:31.862Z,8.02
2023-09-28T22:13:59.693Z,9.68
2023-09-28T22:16:26.175Z,10.52
2023-09-28T22:18:52.742Z,8.80
2023-09-28T22:21:20.807Z,8.25
2023-09-28T22:23:49.593Z,8.10
2023-09-28T22:26:16.121Z,8.27
2023-09-28T22:28:42.606Z,9.30
2023-09-28T22:31:10.894Z,8.47
2023-09-28T22:33:37.468Z,8.55
2023-09-28T22:36:04.089Z,9.23
2023-09-28T22:38:30.596Z,9.77
2023-09-28T22:40:57.281Z,9.73
2023-09-28T22:43:23.819Z,9.70
2023-09-28T22:45:50.240Z,10.07
2023-09-28T22:48:18.155Z,11.18
2023-09-28T22:50:44.732Z,8.55
2023-09-28T22:53:11.222Z,9.65
2023-09-28T22:55:37.798Z,10.00
2023-09-28T22:58:04.648Z,11.50
2023-09-28T23:00:31.300Z,8.57
2023-09-28T23:02:57.866Z,9.77
2023-09-28T23:05:26.071Z,7.93
2023-09-28T23:07:52.624Z,9.27
2023-09-28T23:10:19.159Z,10.02
2023-09-28T23:12:45.635Z,9.30
2023-09-28T23:15:12.558Z,10.25
2023-09-28T23:17:39.077Z,8.05
2023-09-28T23:20:07.157Z,8.47
2023-09-28T23:22:34.923Z,8.85
2023-09-28T23:25:01.405Z,9.15
2023-09-28T23:27:27.871Z,9.25
2023-09-28T23:29:54.511Z,9.00
2023-09-28T23:32:21.142Z,8.43
2023-09-28T23:34:47.668Z,9.43
2023-09-28T23:37:14.083Z,8.27
2023-09-28T23:39:41.885Z,8.70
2023-09-28T23:42:08.480Z,8.52
2023-09-28T23:44:34.925Z,8.57
2023-09-28T23:47:01.371Z,8.27
2023-09-28T23:49:27.822Z,10.30
2023-09-28T23:51:54.273Z,8.68
2023-09-28T23:54:20.704Z,8.65
2023-09-28T23:56:48.458Z,8.47
2023-09-28T23:59:14.886Z,8.45
